Terminal Aerodrome Forecast
Issued by NWS

Home | Current Version | Previous Version | Text Only | Print | Product List | Glossary On
Versions: 1 2 3 4 5 6 7 8 9 10 11 12 13 14 15
000
FTUS43 KOAX 141129
TAFCDR
TAF
KCDR 141129Z 1412/1512 VRB04KT P6SM FEW120
     FM141700 12010KT P6SM SCT100
     FM150000 14012KT P6SM VCTS SCT070CB OVC250=

USA.gov is the U.S. government's official web portal to all federal, state and local government web resources and services.